Greenbelt, Maryland
Current Conditions -  °F | °C
As of 5:40 PM on Monday 22 Dec 2014 (Local Time) from KCGS Reporting Station
NA  
Wind Chill: 32°   Ceiling: NA
Heat Index: 36°   Visibility: 3mi
Dew Point: 34°   Wind: 5mph
Humidity: 93%   Direction: 350°N
Pressure: 30.16"   Gusts: NA
Location:  39°N, 76.88°W
Report Text: KCGS 222240Z AUTO 35004KT 3SM 02/01 A3016 RMK AO1 SKY OBSCURED
Loading
Personal Weather Stations






























Interactive Weather Map New forecast layout! Learn more

10-Day Weather Forecast

Advertisements
Track Severe Weather on mobile